sensor_id;sensor_type;location;lat;lon;timestamp;temperature;humidity
66013;DHT22;52783;50.502;8.190;2023-07-13T00:02:05;18.70;99.90
66013;DHT22;52783;50.502;8.190;2023-07-13T00:04:31;18.70;99.90
66013;DHT22;52783;50.502;8.190;2023-07-13T00:06:57;18.70;99.90
66013;DHT22;52783;50.502;8.190;2023-07-13T00:09:23;18.60;99.90
66013;DHT22;52783;50.502;8.190;2023-07-13T00:11:54;18.60;99.90
66013;DHT22;52783;50.502;8.190;2023-07-13T00:14:20;18.60;99.90
66013;DHT22;52783;50.502;8.190;2023-07-13T00:16:45;18.60;99.90
66013;DHT22;52783;50.502;8.190;2023-07-13T00:19:12;18.60;99.90
66013;DHT22;52783;50.502;8.190;2023-07-13T00:21:41;18.60;99.90
66013;DHT22;52783;50.502;8.190;2023-07-13T00:24:08;18.60;99.90
66013;DHT22;52783;50.502;8.190;2023-07-13T00:26:38;18.60;99.90
66013;DHT22;52783;50.502;8.190;2023-07-13T00:29:04;18.40;99.90
66013;DHT22;52783;50.502;8.190;2023-07-13T00:31:31;18.30;99.90
66013;DHT22;52783;50.502;8.190;2023-07-13T00:33:57;18.30;99.90
66013;DHT22;52783;50.502;8.190;2023-07-13T00:36:22;18.20;99.90
66013;DHT22;52783;50.502;8.190;2023-07-13T00:38:48;18.20;99.90
66013;DHT22;52783;50.502;8.190;2023-07-13T00:41:13;18.10;99.90
66013;DHT22;52783;50.502;8.190;2023-07-13T00:43:40;18.10;99.90
66013;DHT22;52783;50.502;8.190;2023-07-13T00:46:16;18.00;99.90
66013;DHT22;52783;50.502;8.190;2023-07-13T00:48:43;18.00;99.90
66013;DHT22;52783;50.502;8.190;2023-07-13T00:51:10;17.90;99.90
66013;DHT22;52783;50.502;8.190;2023-07-13T00:53:36;17.80;99.90
66013;DHT22;52783;50.502;8.190;2023-07-13T00:56:02;17.80;99.90
66013;DHT22;52783;50.502;8.190;2023-07-13T00:58:29;17.80;99.90
66013;DHT22;52783;50.502;8.190;2023-07-13T01:00:54;17.80;99.90
66013;DHT22;52783;50.502;8.190;2023-07-13T01:03:20;17.70;99.90
66013;DHT22;52783;50.502;8.190;2023-07-13T01:05:48;17.70;99.90
66013;DHT22;52783;50.502;8.190;2023-07-13T01:08:14;17.70;99.90
66013;DHT22;52783;50.502;8.190;2023-07-13T01:10:41;17.60;99.90
66013;DHT22;52783;50.502;8.190;2023-07-13T01:13:08;17.60;99.90
66013;DHT22;52783;50.502;8.190;2023-07-13T01:15:46;17.50;99.90
66013;DHT22;52783;50.502;8.190;2023-07-13T01:18:26;17.50;99.90
66013;DHT22;52783;50.502;8.190;2023-07-13T01:23:20;17.40;99.90
66013;DHT22;52783;50.502;8.190;2023-07-13T01:25:46;17.40;99.90
66013;DHT22;52783;50.502;8.190;2023-07-13T01:28:11;17.40;99.90
66013;DHT22;52783;50.502;8.190;2023-07-13T01:30:38;17.30;99.90
66013;DHT22;52783;50.502;8.190;2023-07-13T01:33:08;17.20;99.90
66013;DHT22;52783;50.502;8.190;2023-07-13T01:35:35;17.10;99.90
66013;DHT22;52783;50.502;8.190;2023-07-13T01:38:01;17.10;99.90
66013;DHT22;52783;50.502;8.190;2023-07-13T01:40:29;17.00;99.90
66013;DHT22;52783;50.502;8.190;2023-07-13T01:42:55;17.00;99.90
66013;DHT22;52783;50.502;8.190;2023-07-13T01:45:21;16.90;99.90
66013;DHT22;52783;50.502;8.190;2023-07-13T01:47:47;16.80;99.90
66013;DHT22;52783;50.502;8.190;2023-07-13T01:50:12;16.80;99.90
66013;DHT22;52783;50.502;8.190;2023-07-13T01:52:38;16.80;99.90
66013;DHT22;52783;50.502;8.190;2023-07-13T01:55:04;16.70;99.90
66013;DHT22;52783;50.502;8.190;2023-07-13T01:57:30;16.80;99.90
66013;DHT22;52783;50.502;8.190;2023-07-13T01:59:55;16.70;99.90
66013;DHT22;52783;50.502;8.190;2023-07-13T02:02:21;16.60;99.90
66013;DHT22;52783;50.502;8.190;2023-07-13T02:04:46;16.60;99.90
66013;DHT22;52783;50.502;8.190;2023-07-13T02:07:12;16.50;99.90
66013;DHT22;52783;50.502;8.190;2023-07-13T02:09:37;16.50;99.90
66013;DHT22;52783;50.502;8.190;2023-07-13T02:12:03;16.40;99.90
66013;DHT22;52783;50.502;8.190;2023-07-13T02:14:29;16.40;99.90
66013;DHT22;52783;50.502;8.190;2023-07-13T02:16:54;16.40;99.90
66013;DHT22;52783;50.502;8.190;2023-07-13T02:19:20;16.20;99.90
66013;DHT22;52783;50.502;8.190;2023-07-13T02:21:45;16.20;99.90
66013;DHT22;52783;50.502;8.190;2023-07-13T02:24:11;16.20;99.90
66013;DHT22;52783;50.502;8.190;2023-07-13T02:26:45;16.10;99.90
66013;DHT22;52783;50.502;8.190;2023-07-13T02:29:11;16.10;99.90
66013;DHT22;52783;50.502;8.190;2023-07-13T02:31:37;16.10;99.90
66013;DHT22;52783;50.502;8.190;2023-07-13T02:34:02;16.10;99.90
66013;DHT22;52783;50.502;8.190;2023-07-13T02:36:29;16.10;99.90
66013;DHT22;52783;50.502;8.190;2023-07-13T02:38:55;16.10;99.90
66013;DHT22;52783;50.502;8.190;2023-07-13T02:41:20;16.00;99.90
66013;DHT22;52783;50.502;8.190;2023-07-13T02:43:48;16.00;99.90
66013;DHT22;52783;50.502;8.190;2023-07-13T02:46:14;16.00;99.90
66013;DHT22;52783;50.502;8.190;2023-07-13T02:48:40;15.90;99.90
66013;DHT22;52783;50.502;8.190;2023-07-13T02:51:06;15.80;99.90
66013;DHT22;52783;50.502;8.190;2023-07-13T02:53:32;15.80;99.90
66013;DHT22;52783;50.502;8.190;2023-07-13T02:55:58;15.70;99.90
66013;DHT22;52783;50.502;8.190;2023-07-13T02:58:23;15.60;99.90
66013;DHT22;52783;50.502;8.190;2023-07-13T03:00:49;15.60;99.90
66013;DHT22;52783;50.502;8.190;2023-07-13T03:03:15;15.60;99.90
66013;DHT22;52783;50.502;8.190;2023-07-13T03:05:43;15.50;99.90
66013;DHT22;52783;50.502;8.190;2023-07-13T03:08:10;15.50;99.90
66013;DHT22;52783;50.502;8.190;2023-07-13T03:10:36;15.50;99.90
66013;DHT22;52783;50.502;8.190;2023-07-13T03:13:02;15.50;99.90
66013;DHT22;52783;50.502;8.190;2023-07-13T03:15:28;15.40;99.90
66013;DHT22;52783;50.502;8.190;2023-07-13T03:17:53;15.40;99.90
66013;DHT22;52783;50.502;8.190;2023-07-13T03:20:19;15.30;99.90
66013;DHT22;52783;50.502;8.190;2023-07-13T03:22:44;15.30;99.90
66013;DHT22;52783;50.502;8.190;2023-07-13T03:25:10;15.30;99.90
66013;DHT22;52783;50.502;8.190;2023-07-13T03:27:36;15.20;99.90
66013;DHT22;52783;50.502;8.190;2023-07-13T03:30:03;15.20;99.90
66013;DHT22;52783;50.502;8.190;2023-07-13T03:32:29;15.10;99.90
66013;DHT22;52783;50.502;8.190;2023-07-13T03:34:55;15.10;99.90
66013;DHT22;52783;50.502;8.190;2023-07-13T03:37:20;15.10;99.90
66013;DHT22;52783;50.502;8.190;2023-07-13T03:39:46;15.00;99.90
66013;DHT22;52783;50.502;8.190;2023-07-13T03:42:12;15.00;99.90
66013;DHT22;52783;50.502;8.190;2023-07-13T03:44:39;15.00;99.90
66013;DHT22;52783;50.502;8.190;2023-07-13T03:47:05;15.00;99.90
66013;DHT22;52783;50.502;8.190;2023-07-13T03:49:31;14.80;99.90
66013;DHT22;52783;50.502;8.190;2023-07-13T03:51:57;14.80;99.90
66013;DHT22;52783;50.502;8.190;2023-07-13T03:54:22;14.70;99.90
66013;DHT22;52783;50.502;8.190;2023-07-13T03:56:48;14.70;99.90
66013;DHT22;52783;50.502;8.190;2023-07-13T03:59:13;14.80;99.90
66013;DHT22;52783;50.502;8.190;2023-07-13T04:01:39;14.80;99.90
66013;DHT22;52783;50.502;8.190;2023-07-13T04:04:04;14.80;99.90
66013;DHT22;52783;50.502;8.190;2023-07-13T04:06:32;14.90;99.90
66013;DHT22;52783;50.502;8.190;2023-07-13T04:08:59;15.00;99.90
66013;DHT22;52783;50.502;8.190;2023-07-13T04:11:28;14.90;99.90
66013;DHT22;52783;50.502;8.190;2023-07-13T04:13:54;14.90;99.90
66013;DHT22;52783;50.502;8.190;2023-07-13T04:16:20;15.00;99.90
66013;DHT22;52783;50.502;8.190;2023-07-13T04:18:47;15.00;99.90
66013;DHT22;52783;50.502;8.190;2023-07-13T04:21:13;15.10;99.90
66013;DHT22;52783;50.502;8.190;2023-07-13T04:23:39;15.10;99.90
66013;DHT22;52783;50.502;8.190;2023-07-13T04:26:05;15.20;99.90
66013;DHT22;52783;50.502;8.190;2023-07-13T04:28:31;15.30;99.90
66013;DHT22;52783;50.502;8.190;2023-07-13T04:30:57;15.50;99.90
66013;DHT22;52783;50.502;8.190;2023-07-13T04:33:23;15.70;99.90
66013;DHT22;52783;50.502;8.190;2023-07-13T04:35:50;16.10;99.90
66013;DHT22;52783;50.502;8.190;2023-07-13T04:38:20;16.40;99.90
66013;DHT22;52783;50.502;8.190;2023-07-13T04:40:46;17.00;99.90
66013;DHT22;52783;50.502;8.190;2023-07-13T04:43:11;17.30;99.90
66013;DHT22;52783;50.502;8.190;2023-07-13T04:45:37;18.00;99.90
66013;DHT22;52783;50.502;8.190;2023-07-13T04:48:03;18.30;99.90
66013;DHT22;52783;50.502;8.190;2023-07-13T04:50:28;18.60;99.90
66013;DHT22;52783;50.502;8.190;2023-07-13T04:52:54;18.80;99.90
66013;DHT22;52783;50.502;8.190;2023-07-13T04:55:20;19.00;99.90
66013;DHT22;52783;50.502;8.190;2023-07-13T04:57:46;19.20;99.90
66013;DHT22;52783;50.502;8.190;2023-07-13T05:00:13;19.80;99.90
66013;DHT22;52783;50.502;8.190;2023-07-13T05:02:42;20.10;99.90
66013;DHT22;52783;50.502;8.190;2023-07-13T05:05:08;20.50;99.90
66013;DHT22;52783;50.502;8.190;2023-07-13T05:07:34;20.80;99.90
66013;DHT22;52783;50.502;8.190;2023-07-13T05:09:59;20.60;99.90
66013;DHT22;52783;50.502;8.190;2023-07-13T05:12:25;21.00;99.90
66013;DHT22;52783;50.502;8.190;2023-07-13T05:14:51;20.90;99.90
66013;DHT22;52783;50.502;8.190;2023-07-13T05:17:17;21.20;99.90
66013;DHT22;52783;50.502;8.190;2023-07-13T05:19:42;21.70;99.90
66013;DHT22;52783;50.502;8.190;2023-07-13T05:22:08;21.60;99.90
66013;DHT22;52783;50.502;8.190;2023-07-13T05:24:34;21.40;99.90
66013;DHT22;52783;50.502;8.190;2023-07-13T05:26:59;22.00;99.90
66013;DHT22;52783;50.502;8.190;2023-07-13T05:29:25;22.20;99.90
66013;DHT22;52783;50.502;8.190;2023-07-13T05:31:50;21.90;99.90
66013;DHT22;52783;50.502;8.190;2023-07-13T05:34:16;22.10;99.90
66013;DHT22;52783;50.502;8.190;2023-07-13T05:36:42;22.90;99.90
66013;DHT22;52783;50.502;8.190;2023-07-13T05:39:08;23.00;99.90
66013;DHT22;52783;50.502;8.190;2023-07-13T05:41:33;22.70;99.90
66013;DHT22;52783;50.502;8.190;2023-07-13T05:43:59;22.60;99.90
66013;DHT22;52783;50.502;8.190;2023-07-13T05:46:24;23.30;99.90
66013;DHT22;52783;50.502;8.190;2023-07-13T05:48:50;23.80;99.90
66013;DHT22;52783;50.502;8.190;2023-07-13T05:51:16;23.70;99.90
66013;DHT22;52783;50.502;8.190;2023-07-13T05:53:42;24.10;99.90
66013;DHT22;52783;50.502;8.190;2023-07-13T05:56:07;23.80;99.90
66013;DHT22;52783;50.502;8.190;2023-07-13T05:58:33;24.20;99.90
66013;DHT22;52783;50.502;8.190;2023-07-13T06:01:08;24.00;99.90
66013;DHT22;52783;50.502;8.190;2023-07-13T06:03:34;24.50;99.90
66013;DHT22;52783;50.502;8.190;2023-07-13T06:05:59;24.90;99.90
66013;DHT22;52783;50.502;8.190;2023-07-13T06:08:28;25.50;99.90
66013;DHT22;52783;50.502;8.190;2023-07-13T06:10:54;25.40;99.90
66013;DHT22;52783;50.502;8.190;2023-07-13T06:13:19;25.20;99.90
66013;DHT22;52783;50.502;8.190;2023-07-13T06:15:51;25.20;99.90
66013;DHT22;52783;50.502;8.190;2023-07-13T06:18:17;25.10;99.90
66013;DHT22;52783;50.502;8.190;2023-07-13T06:20:42;25.30;99.90
66013;DHT22;52783;50.502;8.190;2023-07-13T06:23:08;25.80;99.90
66013;DHT22;52783;50.502;8.190;2023-07-13T06:25:33;25.10;99.90
66013;DHT22;52783;50.502;8.190;2023-07-13T06:27:59;25.20;99.90
66013;DHT22;52783;50.502;8.190;2023-07-13T06:30:24;25.10;99.90
66013;DHT22;52783;50.502;8.190;2023-07-13T06:32:50;25.30;99.90
66013;DHT22;52783;50.502;8.190;2023-07-13T06:35:16;25.00;99.90
66013;DHT22;52783;50.502;8.190;2023-07-13T06:37:41;25.20;99.90
66013;DHT22;52783;50.502;8.190;2023-07-13T06:40:07;25.50;99.90
66013;DHT22;52783;50.502;8.190;2023-07-13T06:42:33;25.50;99.90
66013;DHT22;52783;50.502;8.190;2023-07-13T06:44:59;26.50;99.90
66013;DHT22;52783;50.502;8.190;2023-07-13T06:47:24;25.40;99.90
66013;DHT22;52783;50.502;8.190;2023-07-13T06:49:50;25.80;99.90
66013;DHT22;52783;50.502;8.190;2023-07-13T06:52:15;25.50;99.90
66013;DHT22;52783;50.502;8.190;2023-07-13T06:54:41;26.00;99.90
66013;DHT22;52783;50.502;8.190;2023-07-13T06:57:06;26.00;99.90
66013;DHT22;52783;50.502;8.190;2023-07-13T06:59:32;26.50;99.90
66013;DHT22;52783;50.502;8.190;2023-07-13T07:01:58;26.50;99.90
66013;DHT22;52783;50.502;8.190;2023-07-13T07:04:23;26.40;99.90
66013;DHT22;52783;50.502;8.190;2023-07-13T07:06:49;25.90;99.90
66013;DHT22;52783;50.502;8.190;2023-07-13T07:09:14;25.50;99.90
66013;DHT22;52783;50.502;8.190;2023-07-13T07:11:41;25.20;99.90
66013;DHT22;52783;50.502;8.190;2023-07-13T07:14:08;24.50;99.90
66013;DHT22;52783;50.502;8.190;2023-07-13T07:16:33;24.80;99.90
66013;DHT22;52783;50.502;8.190;2023-07-13T07:18:59;24.50;99.90
66013;DHT22;52783;50.502;8.190;2023-07-13T07:21:24;24.30;99.90
66013;DHT22;52783;50.502;8.190;2023-07-13T07:23:51;23.60;99.90
66013;DHT22;52783;50.502;8.190;2023-07-13T07:26:17;24.20;99.90
66013;DHT22;52783;50.502;8.190;2023-07-13T07:28:42;24.20;99.90
66013;DHT22;52783;50.502;8.190;2023-07-13T07:31:08;24.50;99.90
66013;DHT22;52783;50.502;8.190;2023-07-13T07:33:34;24.60;99.90
66013;DHT22;52783;50.502;8.190;2023-07-13T07:36:00;24.60;99.90
66013;DHT22;52783;50.502;8.190;2023-07-13T07:38:25;24.20;99.90
66013;DHT22;52783;50.502;8.190;2023-07-13T07:40:52;24.70;99.90
66013;DHT22;52783;50.502;8.190;2023-07-13T07:43:18;25.50;99.90
66013;DHT22;52783;50.502;8.190;2023-07-13T07:45:44;25.30;99.90
66013;DHT22;52783;50.502;8.190;2023-07-13T07:48:10;25.70;99.90
66013;DHT22;52783;50.502;8.190;2023-07-13T07:50:36;25.60;99.90
66013;DHT22;52783;50.502;8.190;2023-07-13T07:53:03;25.20;99.90
66013;DHT22;52783;50.502;8.190;2023-07-13T07:55:35;25.60;99.90
66013;DHT22;52783;50.502;8.190;2023-07-13T07:58:01;25.60;99.90
66013;DHT22;52783;50.502;8.190;2023-07-13T08:00:27;24.80;99.90
66013;DHT22;52783;50.502;8.190;2023-07-13T08:02:55;25.10;99.90
66013;DHT22;52783;50.502;8.190;2023-07-13T08:05:21;24.50;99.90
66013;DHT22;52783;50.502;8.190;2023-07-13T08:07:46;25.40;99.90
66013;DHT22;52783;50.502;8.190;2023-07-13T08:10:12;26.20;99.90
66013;DHT22;52783;50.502;8.190;2023-07-13T08:12:38;25.80;99.90
66013;DHT22;52783;50.502;8.190;2023-07-13T08:15:06;25.60;99.90
66013;DHT22;52783;50.502;8.190;2023-07-13T08:17:32;25.50;99.90
66013;DHT22;52783;50.502;8.190;2023-07-13T08:19:57;26.20;99.90
66013;DHT22;52783;50.502;8.190;2023-07-13T08:22:23;27.20;99.90
66013;DHT22;52783;50.502;8.190;2023-07-13T08:24:48;27.50;99.90
66013;DHT22;52783;50.502;8.190;2023-07-13T08:27:22;27.60;99.90
66013;DHT22;52783;50.502;8.190;2023-07-13T08:29:48;27.10;99.90
66013;DHT22;52783;50.502;8.190;2023-07-13T08:32:14;27.30;99.90
66013;DHT22;52783;50.502;8.190;2023-07-13T08:34:39;26.70;99.90
66013;DHT22;52783;50.502;8.190;2023-07-13T08:37:06;26.90;99.90
66013;DHT22;52783;50.502;8.190;2023-07-13T08:39:32;27.10;99.90
66013;DHT22;52783;50.502;8.190;2023-07-13T08:42:16;26.60;99.90
66013;DHT22;52783;50.502;8.190;2023-07-13T08:47:21;26.70;99.90
66013;DHT22;52783;50.502;8.190;2023-07-13T08:49:47;27.30;99.90
66013;DHT22;52783;50.502;8.190;2023-07-13T08:52:38;27.00;99.90
66013;DHT22;52783;50.502;8.190;2023-07-13T08:55:12;27.10;99.90
66013;DHT22;52783;50.502;8.190;2023-07-13T08:57:41;27.00;99.90
66013;DHT22;52783;50.502;8.190;2023-07-13T09:00:10;27.40;99.90
66013;DHT22;52783;50.502;8.190;2023-07-13T09:02:53;26.90;99.90
66013;DHT22;52783;50.502;8.190;2023-07-13T09:05:30;27.40;99.90
66013;DHT22;52783;50.502;8.190;2023-07-13T09:10:52;27.10;99.90
66013;DHT22;52783;50.502;8.190;2023-07-13T09:16:24;26.70;99.90
66013;DHT22;52783;50.502;8.190;2023-07-13T09:18:52;26.20;99.90
66013;DHT22;52783;50.502;8.190;2023-07-13T09:21:32;26.10;99.90
66013;DHT22;52783;50.502;8.190;2023-07-13T09:24:32;26.20;99.90
66013;DHT22;52783;50.502;8.190;2023-07-13T09:27:00;25.50;99.90
66013;DHT22;52783;50.502;8.190;2023-07-13T09:29:34;26.50;99.90
66013;DHT22;52783;50.502;8.190;2023-07-13T09:32:06;27.20;99.90
66013;DHT22;52783;50.502;8.190;2023-07-13T09:34:33;26.80;99.90
66013;DHT22;52783;50.502;8.190;2023-07-13T09:36:59;26.60;99.90
66013;DHT22;52783;50.502;8.190;2023-07-13T09:39:30;26.40;99.90
66013;DHT22;52783;50.502;8.190;2023-07-13T09:42:14;27.10;99.90
66013;DHT22;52783;50.502;8.190;2023-07-13T09:47:31;27.30;99.90
66013;DHT22;52783;50.502;8.190;2023-07-13T09:50:00;27.00;99.90
66013;DHT22;52783;50.502;8.190;2023-07-13T09:52:26;27.20;99.90
66013;DHT22;52783;50.502;8.190;2023-07-13T09:54:54;27.10;99.90
66013;DHT22;52783;50.502;8.190;2023-07-13T09:57:26;27.60;99.90
66013;DHT22;52783;50.502;8.190;2023-07-13T09:59:53;28.30;99.90
66013;DHT22;52783;50.502;8.190;2023-07-13T10:02:32;27.70;99.90
66013;DHT22;52783;50.502;8.190;2023-07-13T10:05:01;28.30;99.90
66013;DHT22;52783;50.502;8.190;2023-07-13T10:07:29;28.20;99.90
66013;DHT22;52783;50.502;8.190;2023-07-13T10:09:57;28.90;99.90
66013;DHT22;52783;50.502;8.190;2023-07-13T10:12:23;28.10;99.90
66013;DHT22;52783;50.502;8.190;2023-07-13T10:14:52;27.30;99.90
66013;DHT22;52783;50.502;8.190;2023-07-13T10:17:31;27.00;99.90
66013;DHT22;52783;50.502;8.190;2023-07-13T10:20:03;26.80;99.90
66013;DHT22;52783;50.502;8.190;2023-07-13T10:22:43;26.40;99.90
66013;DHT22;52783;50.502;8.190;2023-07-13T10:25:15;26.80;99.90
66013;DHT22;52783;50.502;8.190;2023-07-13T10:27:42;27.80;99.90
66013;DHT22;52783;50.502;8.190;2023-07-13T10:30:23;29.40;99.90
66013;DHT22;52783;50.502;8.190;2023-07-13T10:32:51;27.70;99.90
66013;DHT22;52783;50.502;8.190;2023-07-13T10:35:19;26.80;99.90
66013;DHT22;52783;50.502;8.190;2023-07-13T10:38:03;26.50;99.90
66013;DHT22;52783;50.502;8.190;2023-07-13T10:41:01;26.30;99.90
66013;DHT22;52783;50.502;8.190;2023-07-13T10:43:36;25.80;99.90
66013;DHT22;52783;50.502;8.190;2023-07-13T10:46:05;26.00;99.90
66013;DHT22;52783;50.502;8.190;2023-07-13T10:48:32;26.10;99.90
66013;DHT22;52783;50.502;8.190;2023-07-13T10:51:00;26.20;99.90
66013;DHT22;52783;50.502;8.190;2023-07-13T10:53:31;26.50;99.90
66013;DHT22;52783;50.502;8.190;2023-07-13T10:56:22;26.90;99.90
66013;DHT22;52783;50.502;8.190;2023-07-13T10:58:50;26.60;99.90
66013;DHT22;52783;50.502;8.190;2023-07-13T11:01:40;26.10;99.90
66013;DHT22;52783;50.502;8.190;2023-07-13T11:04:12;26.70;99.90
66013;DHT22;52783;50.502;8.190;2023-07-13T11:06:40;26.60;99.90
66013;DHT22;52783;50.502;8.190;2023-07-13T11:12:08;26.30;99.90
66013;DHT22;52783;50.502;8.190;2023-07-13T11:14:37;26.70;99.90
66013;DHT22;52783;50.502;8.190;2023-07-13T11:28:17;25.80;99.90
66013;DHT22;52783;50.502;8.190;2023-07-13T11:33:45;25.80;99.90
66013;DHT22;52783;50.502;8.190;2023-07-13T11:36:17;26.00;99.90
66013;DHT22;52783;50.502;8.190;2023-07-13T11:41:29;25.90;99.90
66013;DHT22;52783;50.502;8.190;2023-07-13T11:44:14;26.00;99.90
66013;DHT22;52783;50.502;8.190;2023-07-13T11:46:45;26.10;99.90
66013;DHT22;52783;50.502;8.190;2023-07-13T11:49:14;26.20;99.90
66013;DHT22;52783;50.502;8.190;2023-07-13T11:51:40;26.10;99.90
66013;DHT22;52783;50.502;8.190;2023-07-13T11:54:24;26.20;99.90
66013;DHT22;52783;50.502;8.190;2023-07-13T11:56:50;26.20;99.90
66013;DHT22;52783;50.502;8.190;2023-07-13T11:59:16;26.30;99.90
66013;DHT22;52783;50.502;8.190;2023-07-13T12:01:45;25.60;99.90
66013;DHT22;52783;50.502;8.190;2023-07-13T12:04:23;26.10;99.90
66013;DHT22;52783;50.502;8.190;2023-07-13T12:07:17;26.10;99.90
66013;DHT22;52783;50.502;8.190;2023-07-13T12:09:43;26.10;99.90
66013;DHT22;52783;50.502;8.190;2023-07-13T12:12:13;25.90;99.90
66013;DHT22;52783;50.502;8.190;2023-07-13T12:14:39;25.60;99.90
66013;DHT22;52783;50.502;8.190;2023-07-13T12:17:24;25.00;99.90
66013;DHT22;52783;50.502;8.190;2023-07-13T12:19:51;25.20;99.90
66013;DHT22;52783;50.502;8.190;2023-07-13T12:22:19;25.10;99.90
66013;DHT22;52783;50.502;8.190;2023-07-13T12:24:46;24.70;99.90
66013;DHT22;52783;50.502;8.190;2023-07-13T12:29:58;25.60;99.90
66013;DHT22;52783;50.502;8.190;2023-07-13T12:32:25;25.30;99.90
66013;DHT22;52783;50.502;8.190;2023-07-13T12:34:55;25.40;99.90
66013;DHT22;52783;50.502;8.190;2023-07-13T12:37:22;25.40;99.90
66013;DHT22;52783;50.502;8.190;2023-07-13T12:39:49;25.20;99.90
66013;DHT22;52783;50.502;8.190;2023-07-13T12:42:26;25.20;99.90
66013;DHT22;52783;50.502;8.190;2023-07-13T12:47:42;25.30;99.90
66013;DHT22;52783;50.502;8.190;2023-07-13T12:50:19;25.50;99.90
66013;DHT22;52783;50.502;8.190;2023-07-13T12:52:51;25.30;99.90
66013;DHT22;52783;50.502;8.190;2023-07-13T12:55:19;25.30;99.90
66013;DHT22;52783;50.502;8.190;2023-07-13T12:57:56;25.30;99.90
66013;DHT22;52783;50.502;8.190;2023-07-13T13:00:36;25.10;99.90
66013;DHT22;52783;50.502;8.190;2023-07-13T13:06:00;24.70;99.90
66013;DHT22;52783;50.502;8.190;2023-07-13T13:08:31;24.60;99.90
66013;DHT22;52783;50.502;8.190;2023-07-13T13:10:56;24.60;99.90
66013;DHT22;52783;50.502;8.190;2023-07-13T13:13:22;24.40;99.90
66013;DHT22;52783;50.502;8.190;2023-07-13T13:15:53;24.50;99.90
66013;DHT22;52783;50.502;8.190;2023-07-13T13:18:20;25.00;99.90
66013;DHT22;52783;50.502;8.190;2023-07-13T13:20:47;25.10;99.90
66013;DHT22;52783;50.502;8.190;2023-07-13T13:23:14;24.90;99.90
66013;DHT22;52783;50.502;8.190;2023-07-13T13:25:43;25.20;99.90
66013;DHT22;52783;50.502;8.190;2023-07-13T13:28:17;25.20;99.90
66013;DHT22;52783;50.502;8.190;2023-07-13T13:30:45;24.80;99.90
66013;DHT22;52783;50.502;8.190;2023-07-13T13:33:15;24.50;99.90
66013;DHT22;52783;50.502;8.190;2023-07-13T13:35:41;24.70;99.90
66013;DHT22;52783;50.502;8.190;2023-07-13T13:38:15;24.40;99.90
66013;DHT22;52783;50.502;8.190;2023-07-13T13:40:42;24.80;99.90
66013;DHT22;52783;50.502;8.190;2023-07-13T13:43:25;24.90;99.90
66013;DHT22;52783;50.502;8.190;2023-07-13T13:45:57;25.10;99.90
66013;DHT22;52783;50.502;8.190;2023-07-13T13:48:31;24.90;99.90
66013;DHT22;52783;50.502;8.190;2023-07-13T13:50:57;24.70;99.90
66013;DHT22;52783;50.502;8.190;2023-07-13T13:53:23;24.80;99.90
66013;DHT22;52783;50.502;8.190;2023-07-13T13:55:49;24.80;99.90
66013;DHT22;52783;50.502;8.190;2023-07-13T13:58:15;24.70;99.90
66013;DHT22;52783;50.502;8.190;2023-07-13T14:00:41;25.20;99.90
66013;DHT22;52783;50.502;8.190;2023-07-13T14:03:14;24.80;99.90
66013;DHT22;52783;50.502;8.190;2023-07-13T14:05:40;25.20;99.90
66013;DHT22;52783;50.502;8.190;2023-07-13T14:08:19;24.90;99.90
66013;DHT22;52783;50.502;8.190;2023-07-13T14:10:46;25.40;99.90
66013;DHT22;52783;50.502;8.190;2023-07-13T14:13:21;25.30;99.90
66013;DHT22;52783;50.502;8.190;2023-07-13T14:15:47;25.20;99.90
66013;DHT22;52783;50.502;8.190;2023-07-13T14:18:13;25.40;99.90
66013;DHT22;52783;50.502;8.190;2023-07-13T14:20:44;25.30;99.90
66013;DHT22;52783;50.502;8.190;2023-07-13T14:23:12;24.90;99.90
66013;DHT22;52783;50.502;8.190;2023-07-13T14:25:38;24.80;99.90
66013;DHT22;52783;50.502;8.190;2023-07-13T14:28:31;25.00;99.90
66013;DHT22;52783;50.502;8.190;2023-07-13T14:30:55;25.00;99.90
66013;DHT22;52783;50.502;8.190;2023-07-13T14:33:20;25.00;99.90
66013;DHT22;52783;50.502;8.190;2023-07-13T14:38:39;24.90;99.90
66013;DHT22;52783;50.502;8.190;2023-07-13T14:41:07;25.10;99.90
66013;DHT22;52783;50.502;8.190;2023-07-13T14:43:33;24.90;99.90
66013;DHT22;52783;50.502;8.190;2023-07-13T14:45:58;25.00;99.90
66013;DHT22;52783;50.502;8.190;2023-07-13T14:48:25;24.70;99.90
66013;DHT22;52783;50.502;8.190;2023-07-13T14:50:54;24.90;99.90
66013;DHT22;52783;50.502;8.190;2023-07-13T14:53:22;24.80;99.90
66013;DHT22;52783;50.502;8.190;2023-07-13T14:55:47;24.70;99.90
66013;DHT22;52783;50.502;8.190;2023-07-13T14:58:13;25.00;99.90
66013;DHT22;52783;50.502;8.190;2023-07-13T15:00:39;24.90;99.90
66013;DHT22;52783;50.502;8.190;2023-07-13T15:03:22;25.20;99.90
66013;DHT22;52783;50.502;8.190;2023-07-13T15:05:48;25.40;99.90
66013;DHT22;52783;50.502;8.190;2023-07-13T15:08:15;25.20;99.90
66013;DHT22;52783;50.502;8.190;2023-07-13T15:10:40;25.10;99.90
66013;DHT22;52783;50.502;8.190;2023-07-13T15:13:16;25.40;99.90
66013;DHT22;52783;50.502;8.190;2023-07-13T15:15:44;25.20;99.90
66013;DHT22;52783;50.502;8.190;2023-07-13T15:18:12;25.50;99.90
66013;DHT22;52783;50.502;8.190;2023-07-13T15:20:38;25.50;99.90
66013;DHT22;52783;50.502;8.190;2023-07-13T15:23:04;25.60;99.90
66013;DHT22;52783;50.502;8.190;2023-07-13T15:25:32;25.30;99.90
66013;DHT22;52783;50.502;8.190;2023-07-13T15:27:59;25.40;99.90
66013;DHT22;52783;50.502;8.190;2023-07-13T15:30:57;25.50;99.90
66013;DHT22;52783;50.502;8.190;2023-07-13T15:33:28;25.50;99.90
66013;DHT22;52783;50.502;8.190;2023-07-13T15:35:54;25.80;99.90
66013;DHT22;52783;50.502;8.190;2023-07-13T15:38:23;25.40;99.90
66013;DHT22;52783;50.502;8.190;2023-07-13T15:40:50;25.70;99.90
66013;DHT22;52783;50.502;8.190;2023-07-13T15:43:17;25.50;99.90
66013;DHT22;52783;50.502;8.190;2023-07-13T15:45:43;25.10;99.90
66013;DHT22;52783;50.502;8.190;2023-07-13T15:48:17;25.00;99.90
66013;DHT22;52783;50.502;8.190;2023-07-13T15:50:49;25.00;99.90
66013;DHT22;52783;50.502;8.190;2023-07-13T15:53:26;25.00;99.90
66013;DHT22;52783;50.502;8.190;2023-07-13T15:55:54;25.00;99.90
66013;DHT22;52783;50.502;8.190;2023-07-13T15:58:19;24.60;99.90
66013;DHT22;52783;50.502;8.190;2023-07-13T16:00:45;24.80;99.90
66013;DHT22;52783;50.502;8.190;2023-07-13T16:03:11;24.80;99.90
66013;DHT22;52783;50.502;8.190;2023-07-13T16:05:37;24.80;99.90
66013;DHT22;52783;50.502;8.190;2023-07-13T16:08:05;25.00;99.90
66013;DHT22;52783;50.502;8.190;2023-07-13T16:10:34;25.10;99.90
66013;DHT22;52783;50.502;8.190;2023-07-13T16:13:00;25.10;99.90
66013;DHT22;52783;50.502;8.190;2023-07-13T16:15:26;25.20;99.90
66013;DHT22;52783;50.502;8.190;2023-07-13T16:17:51;25.10;99.90
66013;DHT22;52783;50.502;8.190;2023-07-13T16:20:18;25.00;99.90
66013;DHT22;52783;50.502;8.190;2023-07-13T16:22:48;24.80;99.90